sensor_id;sensor_type;location;lat;lon;timestamp;temperature;humidity
46217;DHT22;47258;59.424;13.482;2022-10-15T00:02:16;7.00;99.90
46217;DHT22;47258;59.424;13.482;2022-10-15T00:04:43;7.10;99.90
46217;DHT22;47258;59.424;13.482;2022-10-15T00:07:10;7.20;99.90
46217;DHT22;47258;59.424;13.482;2022-10-15T00:09:37;7.20;99.90
46217;DHT22;47258;59.424;13.482;2022-10-15T00:12:05;7.30;99.90
46217;DHT22;47258;59.424;13.482;2022-10-15T00:14:32;7.40;99.90
46217;DHT22;47258;59.424;13.482;2022-10-15T00:17:00;7.40;99.90
46217;DHT22;47258;59.424;13.482;2022-10-15T00:19:27;7.50;99.90
46217;DHT22;47258;59.424;13.482;2022-10-15T00:21:54;7.60;99.90
46217;DHT22;47258;59.424;13.482;2022-10-15T00:24:21;7.60;99.90
46217;DHT22;47258;59.424;13.482;2022-10-15T00:26:48;7.70;99.90
46217;DHT22;47258;59.424;13.482;2022-10-15T00:29:15;7.80;99.90
46217;DHT22;47258;59.424;13.482;2022-10-15T00:31:42;7.80;99.90
46217;DHT22;47258;59.424;13.482;2022-10-15T00:34:10;7.90;99.90
46217;DHT22;47258;59.424;13.482;2022-10-15T00:36:37;8.00;99.90
46217;DHT22;47258;59.424;13.482;2022-10-15T00:39:06;8.10;99.90
46217;DHT22;47258;59.424;13.482;2022-10-15T00:41:36;8.20;99.90
46217;DHT22;47258;59.424;13.482;2022-10-15T00:47:13;8.30;99.90
46217;DHT22;47258;59.424;13.482;2022-10-15T00:49:45;8.40;99.90
46217;DHT22;47258;59.424;13.482;2022-10-15T00:52:16;8.50;99.90
46217;DHT22;47258;59.424;13.482;2022-10-15T00:54:47;8.60;99.90
46217;DHT22;47258;59.424;13.482;2022-10-15T00:57:15;8.70;99.90
46217;DHT22;47258;59.424;13.482;2022-10-15T00:59:48;8.80;99.90
46217;DHT22;47258;59.424;13.482;2022-10-15T01:02:16;8.80;99.90
46217;DHT22;47258;59.424;13.482;2022-10-15T01:04:45;8.90;99.90
46217;DHT22;47258;59.424;13.482;2022-10-15T01:07:13;8.90;99.90
46217;DHT22;47258;59.424;13.482;2022-10-15T01:09:40;9.00;99.90
46217;DHT22;47258;59.424;13.482;2022-10-15T01:12:11;9.00;99.90
46217;DHT22;47258;59.424;13.482;2022-10-15T01:14:48;9.10;99.90
46217;DHT22;47258;59.424;13.482;2022-10-15T01:17:20;9.10;99.90
46217;DHT22;47258;59.424;13.482;2022-10-15T01:22:57;9.20;99.90
46217;DHT22;47258;59.424;13.482;2022-10-15T01:25:35;9.20;99.90
46217;DHT22;47258;59.424;13.482;2022-10-15T01:28:16;9.20;99.90
46217;DHT22;47258;59.424;13.482;2022-10-15T01:30:50;9.30;99.90
46217;DHT22;47258;59.424;13.482;2022-10-15T01:33:32;9.30;99.90
46217;DHT22;47258;59.424;13.482;2022-10-15T01:36:10;9.40;99.90
46217;DHT22;47258;59.424;13.482;2022-10-15T01:38:50;9.40;99.90
46217;DHT22;47258;59.424;13.482;2022-10-15T01:41:26;9.50;99.90
46217;DHT22;47258;59.424;13.482;2022-10-15T01:43:58;9.50;99.90
46217;DHT22;47258;59.424;13.482;2022-10-15T01:46:32;9.60;99.90
46217;DHT22;47258;59.424;13.482;2022-10-15T01:49:02;9.60;99.90
46217;DHT22;47258;59.424;13.482;2022-10-15T01:51:33;9.70;99.90
46217;DHT22;47258;59.424;13.482;2022-10-15T01:54:01;9.70;99.90
46217;DHT22;47258;59.424;13.482;2022-10-15T01:56:30;9.70;99.90
46217;DHT22;47258;59.424;13.482;2022-10-15T01:58:58;9.80;99.90
46217;DHT22;47258;59.424;13.482;2022-10-15T02:01:25;9.80;99.90
46217;DHT22;47258;59.424;13.482;2022-10-15T02:03:54;9.80;99.90
46217;DHT22;47258;59.424;13.482;2022-10-15T02:06:24;9.80;99.90
46217;DHT22;47258;59.424;13.482;2022-10-15T02:09:00;9.90;99.90
46217;DHT22;47258;59.424;13.482;2022-10-15T02:11:29;9.90;99.90
46217;DHT22;47258;59.424;13.482;2022-10-15T02:14:01;10.00;99.90
46217;DHT22;47258;59.424;13.482;2022-10-15T02:16:30;10.00;99.90
46217;DHT22;47258;59.424;13.482;2022-10-15T02:19:06;10.00;99.90
46217;DHT22;47258;59.424;13.482;2022-10-15T02:21:38;10.10;99.90
46217;DHT22;47258;59.424;13.482;2022-10-15T02:24:10;10.10;99.90
46217;DHT22;47258;59.424;13.482;2022-10-15T02:26:40;10.10;99.90
46217;DHT22;47258;59.424;13.482;2022-10-15T02:29:11;10.10;99.90
46217;DHT22;47258;59.424;13.482;2022-10-15T02:31:41;10.20;99.90
46217;DHT22;47258;59.424;13.482;2022-10-15T02:34:14;10.20;99.90
46217;DHT22;47258;59.424;13.482;2022-10-15T02:36:43;10.20;99.90
46217;DHT22;47258;59.424;13.482;2022-10-15T02:39:12;10.20;99.90
46217;DHT22;47258;59.424;13.482;2022-10-15T02:41:40;10.30;99.90
46217;DHT22;47258;59.424;13.482;2022-10-15T02:44:08;10.30;99.90
46217;DHT22;47258;59.424;13.482;2022-10-15T02:46:35;10.30;99.90
46217;DHT22;47258;59.424;13.482;2022-10-15T02:49:02;10.30;99.90
46217;DHT22;47258;59.424;13.482;2022-10-15T02:51:32;10.30;99.90
46217;DHT22;47258;59.424;13.482;2022-10-15T02:53:59;10.30;99.90
46217;DHT22;47258;59.424;13.482;2022-10-15T02:56:27;10.40;99.90
46217;DHT22;47258;59.424;13.482;2022-10-15T02:58:54;10.40;99.90
46217;DHT22;47258;59.424;13.482;2022-10-15T03:01:21;10.40;99.90
46217;DHT22;47258;59.424;13.482;2022-10-15T03:03:48;10.40;99.90
46217;DHT22;47258;59.424;13.482;2022-10-15T03:06:15;10.40;99.90
46217;DHT22;47258;59.424;13.482;2022-10-15T03:08:43;10.40;99.90
46217;DHT22;47258;59.424;13.482;2022-10-15T03:11:10;10.40;99.90
46217;DHT22;47258;59.424;13.482;2022-10-15T03:13:38;10.50;99.90
46217;DHT22;47258;59.424;13.482;2022-10-15T03:16:06;10.40;99.90
46217;DHT22;47258;59.424;13.482;2022-10-15T03:18:34;10.50;99.90
46217;DHT22;47258;59.424;13.482;2022-10-15T03:21:01;10.50;99.90
46217;DHT22;47258;59.424;13.482;2022-10-15T03:23:28;10.50;99.90
46217;DHT22;47258;59.424;13.482;2022-10-15T03:25:56;10.50;99.90
46217;DHT22;47258;59.424;13.482;2022-10-15T03:28:23;10.50;99.90
46217;DHT22;47258;59.424;13.482;2022-10-15T03:30:50;10.50;99.90
46217;DHT22;47258;59.424;13.482;2022-10-15T03:33:17;10.50;99.90
46217;DHT22;47258;59.424;13.482;2022-10-15T03:35:44;10.60;99.90
46217;DHT22;47258;59.424;13.482;2022-10-15T03:38:11;10.60;99.90
46217;DHT22;47258;59.424;13.482;2022-10-15T03:40:38;10.60;99.90
46217;DHT22;47258;59.424;13.482;2022-10-15T03:43:06;10.60;99.90
46217;DHT22;47258;59.424;13.482;2022-10-15T03:45:33;10.60;99.90
46217;DHT22;47258;59.424;13.482;2022-10-15T03:48:00;10.60;99.90
46217;DHT22;47258;59.424;13.482;2022-10-15T03:50:27;10.60;99.90
46217;DHT22;47258;59.424;13.482;2022-10-15T03:52:54;10.60;99.90
46217;DHT22;47258;59.424;13.482;2022-10-15T03:55:21;10.60;99.90
46217;DHT22;47258;59.424;13.482;2022-10-15T03:57:48;10.60;99.90
46217;DHT22;47258;59.424;13.482;2022-10-15T04:00:16;10.60;99.90
46217;DHT22;47258;59.424;13.482;2022-10-15T04:02:43;10.60;99.90
46217;DHT22;47258;59.424;13.482;2022-10-15T04:05:10;10.60;99.90
46217;DHT22;47258;59.424;13.482;2022-10-15T04:07:37;10.70;99.90
46217;DHT22;47258;59.424;13.482;2022-10-15T04:10:05;10.70;99.90
46217;DHT22;47258;59.424;13.482;2022-10-15T04:12:32;10.70;99.90
46217;DHT22;47258;59.424;13.482;2022-10-15T04:14:59;10.60;99.90
46217;DHT22;47258;59.424;13.482;2022-10-15T04:17:27;10.70;99.90
46217;DHT22;47258;59.424;13.482;2022-10-15T04:19:54;10.70;99.90
46217;DHT22;47258;59.424;13.482;2022-10-15T04:22:21;10.70;99.90
46217;DHT22;47258;59.424;13.482;2022-10-15T04:24:48;10.70;99.90
46217;DHT22;47258;59.424;13.482;2022-10-15T04:27:15;10.70;99.90
46217;DHT22;47258;59.424;13.482;2022-10-15T04:29:42;10.70;99.90
46217;DHT22;47258;59.424;13.482;2022-10-15T04:32:11;10.60;99.90
46217;DHT22;47258;59.424;13.482;2022-10-15T04:34:39;10.70;99.90
46217;DHT22;47258;59.424;13.482;2022-10-15T04:37:06;10.70;99.90
46217;DHT22;47258;59.424;13.482;2022-10-15T04:39:33;10.60;99.90
46217;DHT22;47258;59.424;13.482;2022-10-15T04:42:00;10.60;99.90
46217;DHT22;47258;59.424;13.482;2022-10-15T04:44:27;10.60;99.90
46217;DHT22;47258;59.424;13.482;2022-10-15T04:46:54;10.60;99.90
46217;DHT22;47258;59.424;13.482;2022-10-15T04:49:21;10.60;99.90
46217;DHT22;47258;59.424;13.482;2022-10-15T04:51:49;10.60;99.90
46217;DHT22;47258;59.424;13.482;2022-10-15T04:54:16;10.60;99.90
46217;DHT22;47258;59.424;13.482;2022-10-15T04:56:43;10.60;99.90
46217;DHT22;47258;59.424;13.482;2022-10-15T04:59:10;10.60;99.90
46217;DHT22;47258;59.424;13.482;2022-10-15T05:01:37;10.60;99.90
46217;DHT22;47258;59.424;13.482;2022-10-15T05:04:04;10.60;99.90
46217;DHT22;47258;59.424;13.482;2022-10-15T05:06:31;10.60;99.90
46217;DHT22;47258;59.424;13.482;2022-10-15T05:09:00;10.60;99.90
46217;DHT22;47258;59.424;13.482;2022-10-15T05:11:28;10.60;99.90
46217;DHT22;47258;59.424;13.482;2022-10-15T05:13:56;10.60;99.90
46217;DHT22;47258;59.424;13.482;2022-10-15T05:16:25;10.60;99.90
46217;DHT22;47258;59.424;13.482;2022-10-15T05:18:54;10.60;99.90
46217;DHT22;47258;59.424;13.482;2022-10-15T05:21:22;10.60;99.90
46217;DHT22;47258;59.424;13.482;2022-10-15T05:23:49;10.60;99.90
46217;DHT22;47258;59.424;13.482;2022-10-15T05:26:20;10.60;99.90
46217;DHT22;47258;59.424;13.482;2022-10-15T05:28:47;10.60;99.90
46217;DHT22;47258;59.424;13.482;2022-10-15T05:31:16;10.60;99.90
46217;DHT22;47258;59.424;13.482;2022-10-15T05:33:44;10.60;99.90
46217;DHT22;47258;59.424;13.482;2022-10-15T05:36:12;10.60;99.90
46217;DHT22;47258;59.424;13.482;2022-10-15T05:38:42;10.70;99.90
46217;DHT22;47258;59.424;13.482;2022-10-15T05:41:09;10.60;99.90
46217;DHT22;47258;59.424;13.482;2022-10-15T05:43:37;10.60;99.90
46217;DHT22;47258;59.424;13.482;2022-10-15T05:46:04;10.70;99.90
46217;DHT22;47258;59.424;13.482;2022-10-15T05:48:31;10.70;99.90
46217;DHT22;47258;59.424;13.482;2022-10-15T05:51:03;10.70;99.90
46217;DHT22;47258;59.424;13.482;2022-10-15T05:53:30;10.70;99.90
46217;DHT22;47258;59.424;13.482;2022-10-15T05:55:57;10.70;99.90
46217;DHT22;47258;59.424;13.482;2022-10-15T05:58:24;10.70;99.90
46217;DHT22;47258;59.424;13.482;2022-10-15T06:00:56;10.70;99.90
46217;DHT22;47258;59.424;13.482;2022-10-15T06:03:24;10.80;99.90
46217;DHT22;47258;59.424;13.482;2022-10-15T06:05:51;10.80;99.90
46217;DHT22;47258;59.424;13.482;2022-10-15T06:08:19;10.80;99.90
46217;DHT22;47258;59.424;13.482;2022-10-15T06:10:46;10.80;99.90
46217;DHT22;47258;59.424;13.482;2022-10-15T06:13:14;10.80;99.90
46217;DHT22;47258;59.424;13.482;2022-10-15T06:15:42;10.80;99.90
46217;DHT22;47258;59.424;13.482;2022-10-15T06:18:11;10.90;99.90
46217;DHT22;47258;59.424;13.482;2022-10-15T06:20:41;10.90;99.90
46217;DHT22;47258;59.424;13.482;2022-10-15T06:23:09;10.90;99.90
46217;DHT22;47258;59.424;13.482;2022-10-15T06:25:36;10.90;99.90
46217;DHT22;47258;59.424;13.482;2022-10-15T06:28:05;10.90;99.90
46217;DHT22;47258;59.424;13.482;2022-10-15T06:30:33;11.00;99.90
46217;DHT22;47258;59.424;13.482;2022-10-15T06:33:00;10.90;99.90
46217;DHT22;47258;59.424;13.482;2022-10-15T06:35:29;11.00;99.90
46217;DHT22;47258;59.424;13.482;2022-10-15T06:37:59;11.00;99.90
46217;DHT22;47258;59.424;13.482;2022-10-15T06:40:26;11.00;99.90
46217;DHT22;47258;59.424;13.482;2022-10-15T06:42:53;11.00;99.90
46217;DHT22;47258;59.424;13.482;2022-10-15T06:45:20;11.00;99.90
46217;DHT22;47258;59.424;13.482;2022-10-15T06:47:47;11.10;99.90
46217;DHT22;47258;59.424;13.482;2022-10-15T06:50:14;11.10;99.90
46217;DHT22;47258;59.424;13.482;2022-10-15T06:52:42;11.10;99.90
46217;DHT22;47258;59.424;13.482;2022-10-15T06:55:09;11.10;99.90
46217;DHT22;47258;59.424;13.482;2022-10-15T06:57:36;11.10;99.90
46217;DHT22;47258;59.424;13.482;2022-10-15T07:00:03;11.10;99.90
46217;DHT22;47258;59.424;13.482;2022-10-15T07:02:30;11.20;99.90
46217;DHT22;47258;59.424;13.482;2022-10-15T07:04:57;11.20;99.90
46217;DHT22;47258;59.424;13.482;2022-10-15T07:07:24;11.20;99.90
46217;DHT22;47258;59.424;13.482;2022-10-15T07:09:52;11.20;99.90
46217;DHT22;47258;59.424;13.482;2022-10-15T07:12:19;11.20;99.90
46217;DHT22;47258;59.424;13.482;2022-10-15T07:14:47;11.20;99.90
46217;DHT22;47258;59.424;13.482;2022-10-15T07:17:14;11.30;99.90
46217;DHT22;47258;59.424;13.482;2022-10-15T07:19:41;11.30;99.90
46217;DHT22;47258;59.424;13.482;2022-10-15T07:22:09;11.20;99.90
46217;DHT22;47258;59.424;13.482;2022-10-15T07:24:36;11.20;99.90
46217;DHT22;47258;59.424;13.482;2022-10-15T07:27:04;11.30;99.90
46217;DHT22;47258;59.424;13.482;2022-10-15T07:29:31;11.30;99.90
46217;DHT22;47258;59.424;13.482;2022-10-15T07:31:58;11.30;99.90
46217;DHT22;47258;59.424;13.482;2022-10-15T07:34:25;11.30;99.90
46217;DHT22;47258;59.424;13.482;2022-10-15T07:36:52;11.30;99.90
46217;DHT22;47258;59.424;13.482;2022-10-15T07:39:19;11.30;99.90
46217;DHT22;47258;59.424;13.482;2022-10-15T07:41:46;11.30;99.90
46217;DHT22;47258;59.424;13.482;2022-10-15T07:44:14;11.30;99.90
46217;DHT22;47258;59.424;13.482;2022-10-15T07:46:41;11.40;99.90
46217;DHT22;47258;59.424;13.482;2022-10-15T07:49:08;11.40;99.90
46217;DHT22;47258;59.424;13.482;2022-10-15T07:51:35;11.40;99.90
46217;DHT22;47258;59.424;13.482;2022-10-15T07:54:03;11.40;99.90
46217;DHT22;47258;59.424;13.482;2022-10-15T07:56:30;11.40;99.90
46217;DHT22;47258;59.424;13.482;2022-10-15T07:58:57;11.40;99.90
46217;DHT22;47258;59.424;13.482;2022-10-15T08:01:25;11.40;99.90
46217;DHT22;47258;59.424;13.482;2022-10-15T08:03:52;11.40;99.90
46217;DHT22;47258;59.424;13.482;2022-10-15T08:06:19;11.40;99.90
46217;DHT22;47258;59.424;13.482;2022-10-15T08:08:46;11.40;99.90
46217;DHT22;47258;59.424;13.482;2022-10-15T08:11:15;11.40;99.90
46217;DHT22;47258;59.424;13.482;2022-10-15T08:13:43;11.40;99.90
46217;DHT22;47258;59.424;13.482;2022-10-15T08:16:12;11.40;99.90
46217;DHT22;47258;59.424;13.482;2022-10-15T08:18:41;11.40;99.90
46217;DHT22;47258;59.424;13.482;2022-10-15T08:21:10;11.40;99.90
46217;DHT22;47258;59.424;13.482;2022-10-15T08:23:37;11.40;99.90
46217;DHT22;47258;59.424;13.482;2022-10-15T08:26:04;11.50;99.90
46217;DHT22;47258;59.424;13.482;2022-10-15T08:28:32;11.40;99.90
46217;DHT22;47258;59.424;13.482;2022-10-15T08:31:00;11.40;99.90
46217;DHT22;47258;59.424;13.482;2022-10-15T08:33:28;11.50;99.90
46217;DHT22;47258;59.424;13.482;2022-10-15T08:35:56;11.50;99.90
46217;DHT22;47258;59.424;13.482;2022-10-15T08:38:23;11.50;99.90
46217;DHT22;47258;59.424;13.482;2022-10-15T08:40:52;11.50;99.90
46217;DHT22;47258;59.424;13.482;2022-10-15T08:43:22;11.50;99.90
46217;DHT22;47258;59.424;13.482;2022-10-15T08:45:54;11.50;99.90
46217;DHT22;47258;59.424;13.482;2022-10-15T08:48:28;11.50;99.90
46217;DHT22;47258;59.424;13.482;2022-10-15T08:51:00;11.50;99.90
46217;DHT22;47258;59.424;13.482;2022-10-15T08:53:29;11.50;99.90
46217;DHT22;47258;59.424;13.482;2022-10-15T08:56:03;11.50;99.90
46217;DHT22;47258;59.424;13.482;2022-10-15T08:58:42;11.60;99.90
46217;DHT22;47258;59.424;13.482;2022-10-15T09:01:15;11.50;99.90
46217;DHT22;47258;59.424;13.482;2022-10-15T09:03:51;11.60;99.90
46217;DHT22;47258;59.424;13.482;2022-10-15T09:06:24;11.60;99.90
46217;DHT22;47258;59.424;13.482;2022-10-15T09:08:58;11.60;99.90
46217;DHT22;47258;59.424;13.482;2022-10-15T09:11:36;11.60;99.90
46217;DHT22;47258;59.424;13.482;2022-10-15T09:14:10;11.70;99.90
46217;DHT22;47258;59.424;13.482;2022-10-15T09:16:39;11.60;99.90
46217;DHT22;47258;59.424;13.482;2022-10-15T09:19:13;11.70;99.90
46217;DHT22;47258;59.424;13.482;2022-10-15T09:21:42;11.70;99.90
46217;DHT22;47258;59.424;13.482;2022-10-15T09:24:11;11.70;99.90
46217;DHT22;47258;59.424;13.482;2022-10-15T09:26:49;11.70;99.90
46217;DHT22;47258;59.424;13.482;2022-10-15T09:29:21;11.80;99.90
46217;DHT22;47258;59.424;13.482;2022-10-15T09:32:03;11.80;99.90
46217;DHT22;47258;59.424;13.482;2022-10-15T09:34:38;11.80;99.90
46217;DHT22;47258;59.424;13.482;2022-10-15T09:37:13;11.90;99.90
46217;DHT22;47258;59.424;13.482;2022-10-15T09:40:13;11.90;99.90
46217;DHT22;47258;59.424;13.482;2022-10-15T09:42:42;12.00;99.90
46217;DHT22;47258;59.424;13.482;2022-10-15T09:45:11;12.10;99.90
46217;DHT22;47258;59.424;13.482;2022-10-15T09:47:39;12.10;99.90
46217;DHT22;47258;59.424;13.482;2022-10-15T09:50:09;12.10;99.90
46217;DHT22;47258;59.424;13.482;2022-10-15T09:52:52;12.10;99.90
46217;DHT22;47258;59.424;13.482;2022-10-15T09:55:34;12.10;99.90
46217;DHT22;47258;59.424;13.482;2022-10-15T09:58:06;12.10;99.90
46217;DHT22;47258;59.424;13.482;2022-10-15T10:00:55;12.20;99.90
46217;DHT22;47258;59.424;13.482;2022-10-15T10:03:25;12.20;99.90
46217;DHT22;47258;59.424;13.482;2022-10-15T10:05:59;12.30;99.90
46217;DHT22;47258;59.424;13.482;2022-10-15T10:08:33;12.40;99.90
46217;DHT22;47258;59.424;13.482;2022-10-15T10:11:02;12.50;99.90
46217;DHT22;47258;59.424;13.482;2022-10-15T10:13:31;12.50;99.90
46217;DHT22;47258;59.424;13.482;2022-10-15T10:16:03;12.60;99.90
46217;DHT22;47258;59.424;13.482;2022-10-15T10:18:30;12.60;99.90
46217;DHT22;47258;59.424;13.482;2022-10-15T10:20:59;12.60;99.90
46217;DHT22;47258;59.424;13.482;2022-10-15T10:23:34;12.70;99.90
46217;DHT22;47258;59.424;13.482;2022-10-15T10:26:04;12.70;99.90
46217;DHT22;47258;59.424;13.482;2022-10-15T10:28:33;12.80;99.90
46217;DHT22;47258;59.424;13.482;2022-10-15T10:31:04;12.80;99.90
46217;DHT22;47258;59.424;13.482;2022-10-15T10:33:36;12.90;99.90
46217;DHT22;47258;59.424;13.482;2022-10-15T10:36:05;13.00;99.90
46217;DHT22;47258;59.424;13.482;2022-10-15T10:38:34;13.00;99.90
46217;DHT22;47258;59.424;13.482;2022-10-15T10:41:04;13.00;99.90
46217;DHT22;47258;59.424;13.482;2022-10-15T10:43:33;13.00;99.90
46217;DHT22;47258;59.424;13.482;2022-10-15T10:46:03;13.00;99.90
46217;DHT22;47258;59.424;13.482;2022-10-15T10:48:41;13.00;99.90
46217;DHT22;47258;59.424;13.482;2022-10-15T10:51:13;13.00;99.90
46217;DHT22;47258;59.424;13.482;2022-10-15T10:53:53;13.00;99.90
46217;DHT22;47258;59.424;13.482;2022-10-15T10:56:23;13.00;99.90
46217;DHT22;47258;59.424;13.482;2022-10-15T10:58:51;13.00;99.90
46217;DHT22;47258;59.424;13.482;2022-10-15T11:01:21;13.00;99.90
46217;DHT22;47258;59.424;13.482;2022-10-15T11:03:48;12.90;99.90
46217;DHT22;47258;59.424;13.482;2022-10-15T11:06:40;12.90;99.90
46217;DHT22;47258;59.424;13.482;2022-10-15T11:09:17;12.80;99.90
46217;DHT22;47258;59.424;13.482;2022-10-15T11:11:56;12.90;99.90
46217;DHT22;47258;59.424;13.482;2022-10-15T11:14:32;12.90;99.90
46217;DHT22;47258;59.424;13.482;2022-10-15T11:17:13;13.00;99.90
46217;DHT22;47258;59.424;13.482;2022-10-15T11:19:46;13.00;99.90
46217;DHT22;47258;59.424;13.482;2022-10-15T11:22:27;13.10;99.90
46217;DHT22;47258;59.424;13.482;2022-10-15T11:25:05;13.10;99.90
46217;DHT22;47258;59.424;13.482;2022-10-15T11:27:57;13.10;99.90
46217;DHT22;47258;59.424;13.482;2022-10-15T11:30:34;13.20;99.90
46217;DHT22;47258;59.424;13.482;2022-10-15T11:33:22;13.20;99.90
46217;DHT22;47258;59.424;13.482;2022-10-15T11:35:59;13.30;99.90
46217;DHT22;47258;59.424;13.482;2022-10-15T11:38:37;13.30;99.90
46217;DHT22;47258;59.424;13.482;2022-10-15T11:41:24;13.30;99.90
46217;DHT22;47258;59.424;13.482;2022-10-15T11:44:17;13.40;99.90
46217;DHT22;47258;59.424;13.482;2022-10-15T11:46:56;13.50;99.90
46217;DHT22;47258;59.424;13.482;2022-10-15T11:49:35;13.50;99.90
46217;DHT22;47258;59.424;13.482;2022-10-15T11:52:17;13.60;99.90
46217;DHT22;47258;59.424;13.482;2022-10-15T11:55:01;13.60;99.90
46217;DHT22;47258;59.424;13.482;2022-10-15T11:57:32;13.60;99.90
46217;DHT22;47258;59.424;13.482;2022-10-15T12:00:03;13.60;99.90
46217;DHT22;47258;59.424;13.482;2022-10-15T12:02:34;13.70;99.90
46217;DHT22;47258;59.424;13.482;2022-10-15T12:05:06;13.70;99.90
46217;DHT22;47258;59.424;13.482;2022-10-15T12:07:38;13.80;99.90
46217;DHT22;47258;59.424;13.482;2022-10-15T12:10:17;13.80;99.90
46217;DHT22;47258;59.424;13.482;2022-10-15T12:12:52;13.90;99.90
46217;DHT22;47258;59.424;13.482;2022-10-15T12:15:26;13.90;99.90
46217;DHT22;47258;59.424;13.482;2022-10-15T12:18:02;13.90;99.90
46217;DHT22;47258;59.424;13.482;2022-10-15T12:20:31;14.00;99.90
46217;DHT22;47258;59.424;13.482;2022-10-15T12:22:59;14.00;99.90
46217;DHT22;47258;59.424;13.482;2022-10-15T12:25:44;14.00;99.90
46217;DHT22;47258;59.424;13.482;2022-10-15T12:28:18;14.00;99.90
46217;DHT22;47258;59.424;13.482;2022-10-15T12:31:00;14.00;99.90
46217;DHT22;47258;59.424;13.482;2022-10-15T12:33:50;13.90;99.90
46217;DHT22;47258;59.424;13.482;2022-10-15T12:36:22;14.00;99.90
46217;DHT22;47258;59.424;13.482;2022-10-15T12:38:56;14.00;99.90
46217;DHT22;47258;59.424;13.482;2022-10-15T12:41:34;14.00;99.90
46217;DHT22;47258;59.424;13.482;2022-10-15T12:44:14;14.00;99.90
46217;DHT22;47258;59.424;13.482;2022-10-15T12:46:44;14.00;99.90
46217;DHT22;47258;59.424;13.482;2022-10-15T12:49:45;14.00;99.90
46217;DHT22;47258;59.424;13.482;2022-10-15T12:55:22;14.00;99.90
46217;DHT22;47258;59.424;13.482;2022-10-15T12:57:54;13.90;99.90
46217;DHT22;47258;59.424;13.482;2022-10-15T13:00:35;13.90;99.90
46217;DHT22;47258;59.424;13.482;2022-10-15T13:03:22;13.90;99.90
46217;DHT22;47258;59.424;13.482;2022-10-15T13:05:50;13.90;99.90
46217;DHT22;47258;59.424;13.482;2022-10-15T13:08:21;13.90;99.90
46217;DHT22;47258;59.424;13.482;2022-10-15T13:10:51;13.90;99.90
46217;DHT22;47258;59.424;13.482;2022-10-15T13:13:23;13.90;99.90
46217;DHT22;47258;59.424;13.482;2022-10-15T13:15:56;13.90;99.90
46217;DHT22;47258;59.424;13.482;2022-10-15T13:18:24;13.90;99.90
46217;DHT22;47258;59.424;13.482;2022-10-15T13:20:52;13.80;99.90
46217;DHT22;47258;59.424;13.482;2022-10-15T13:23:24;13.80;99.90
46217;DHT22;47258;59.424;13.482;2022-10-15T13:28:36;13.80;99.90
46217;DHT22;47258;59.424;13.482;2022-10-15T13:31:13;13.80;99.90
46217;DHT22;47258;59.424;13.482;2022-10-15T13:33:43;13.80;99.90
46217;DHT22;47258;59.424;13.482;2022-10-15T13:36:17;13.80;99.90
46217;DHT22;47258;59.424;13.482;2022-10-15T13:38:52;13.80;99.90
46217;DHT22;47258;59.424;13.482;2022-10-15T13:41:27;13.80;99.90
46217;DHT22;47258;59.424;13.482;2022-10-15T13:43:55;13.80;99.90
46217;DHT22;47258;59.424;13.482;2022-10-15T13:46:28;13.80;99.90
46217;DHT22;47258;59.424;13.482;2022-10-15T13:48:57;13.70;99.90
46217;DHT22;47258;59.424;13.482;2022-10-15T13:51:30;13.70;99.90
46217;DHT22;47258;59.424;13.482;2022-10-15T13:53:59;13.70;99.90
46217;DHT22;47258;59.424;13.482;2022-10-15T13:56:27;13.70;99.90
46217;DHT22;47258;59.424;13.482;2022-10-15T13:58:54;13.60;99.90
46217;DHT22;47258;59.424;13.482;2022-10-15T14:01:24;13.60;99.90
46217;DHT22;47258;59.424;13.482;2022-10-15T14:03:53;13.60;99.90
46217;DHT22;47258;59.424;13.482;2022-10-15T14:06:22;13.60;99.90
46217;DHT22;47258;59.424;13.482;2022-10-15T14:08:51;13.60;99.90
46217;DHT22;47258;59.424;13.482;2022-10-15T14:11:19;13.60;99.90
46217;DHT22;47258;59.424;13.482;2022-10-15T14:13:47;13.60;99.90
46217;DHT22;47258;59.424;13.482;2022-10-15T14:16:19;13.50;99.90
46217;DHT22;47258;59.424;13.482;2022-10-15T14:18:48;13.50;99.90
46217;DHT22;47258;59.424;13.482;2022-10-15T14:21:19;13.50;99.90
46217;DHT22;47258;59.424;13.482;2022-10-15T14:23:47;13.50;99.90
46217;DHT22;47258;59.424;13.482;2022-10-15T14:26:15;13.50;99.90
46217;DHT22;47258;59.424;13.482;2022-10-15T14:28:50;13.40;99.90
46217;DHT22;47258;59.424;13.482;2022-10-15T14:31:36;13.40;99.90
46217;DHT22;47258;59.424;13.482;2022-10-15T14:34:04;13.40;99.90
46217;DHT22;47258;59.424;13.482;2022-10-15T14:36:40;13.40;99.90
46217;DHT22;47258;59.424;13.482;2022-10-15T14:39:25;13.30;99.90
46217;DHT22;47258;59.424;13.482;2022-10-15T14:42:00;13.30;99.90
46217;DHT22;47258;59.424;13.482;2022-10-15T14:44:40;13.30;99.90
46217;DHT22;47258;59.424;13.482;2022-10-15T14:47:17;13.30;99.90
46217;DHT22;47258;59.424;13.482;2022-10-15T14:49:44;13.20;99.90
46217;DHT22;47258;59.424;13.482;2022-10-15T14:52:15;13.20;99.90
46217;DHT22;47258;59.424;13.482;2022-10-15T14:54:46;13.10;99.90
46217;DHT22;47258;59.424;13.482;2022-10-15T14:57:19;13.10;99.90
46217;DHT22;47258;59.424;13.482;2022-10-15T14:59:51;13.10;99.90
46217;DHT22;47258;59.424;13.482;2022-10-15T15:02:19;13.00;99.90
46217;DHT22;47258;59.424;13.482;2022-10-15T15:05:05;13.00;99.90
46217;DHT22;47258;59.424;13.482;2022-10-15T15:07:34;12.90;99.90
46217;DHT22;47258;59.424;13.482;2022-10-15T15:10:00;12.90;99.90
46217;DHT22;47258;59.424;13.482;2022-10-15T15:12:28;12.80;99.90
46217;DHT22;47258;59.424;13.482;2022-10-15T15:14:56;12.80;99.90
46217;DHT22;47258;59.424;13.482;2022-10-15T15:17:25;12.70;99.90
46217;DHT22;47258;59.424;13.482;2022-10-15T15:19:53;12.70;99.90
46217;DHT22;47258;59.424;13.482;2022-10-15T15:22:26;12.70;99.90
46217;DHT22;47258;59.424;13.482;2022-10-15T15:24:56;12.70;99.90
46217;DHT22;47258;59.424;13.482;2022-10-15T15:27:25;12.60;99.90
46217;DHT22;47258;59.424;13.482;2022-10-15T15:29:52;12.60;99.90
46217;DHT22;47258;59.424;13.482;2022-10-15T15:32:20;12.60;99.90
46217;DHT22;47258;59.424;13.482;2022-10-15T15:34:48;12.50;99.90
46217;DHT22;47258;59.424;13.482;2022-10-15T15:37:18;12.40;99.90
46217;DHT22;47258;59.424;13.482;2022-10-15T15:39:45;12.40;99.90
46217;DHT22;47258;59.424;13.482;2022-10-15T15:42:14;12.30;99.90
46217;DHT22;47258;59.424;13.482;2022-10-15T15:44:42;12.20;99.90
46217;DHT22;47258;59.424;13.482;2022-10-15T15:47:09;12.20;99.90
46217;DHT22;47258;59.424;13.482;2022-10-15T15:49:37;12.10;99.90
46217;DHT22;47258;59.424;13.482;2022-10-15T15:52:05;12.00;99.90